Time;durP1;ratioP1;P1;durP2;ratioP2;P2;SDS_P1;SDS_P2;PMS_P1;PMS_P2;Temp;Humidity;BMP_temperature;BMP_pressure;BME280_temperature;BME280_humidity;BME280_pressure;Samples;Min_cycle;Max_cycle;Signal;HPM_P1;HPM_P2
2023/12/13 00:01:26;;;;;;;1.05;0.80;;;10.80;78.30;;;;;;5002253;28;20405;-60
2023/12/13 00:03:53;;;;;;;16.95;4.57;;;10.70;78.30;;;;;;4985171;28;20905;-60
2023/12/13 00:06:19;;;;;;;2.53;1.60;;;10.70;78.30;;;;;;5002306;28;20125;-61
2023/12/13 00:08:44;;;;;;;2.55;1.20;;;10.70;78.00;;;;;;5000542;28;20045;-61
2023/12/13 00:11:10;;;;;;;1.25;1.10;;;10.60;77.80;;;;;;5004965;28;20061;-60
2023/12/13 00:13:36;;;;;;;4.13;2.25;;;10.60;77.90;;;;;;5003628;28;20032;-60
2023/12/13 00:16:02;;;;;;;2.88;1.40;;;10.60;78.00;;;;;;5001315;28;20072;-59
2023/12/13 00:18:30;;;;;;;1.73;1.10;;;10.60;78.00;;;;;;5001671;28;20438;-60
2023/12/13 00:20:56;;;;;;;2.53;1.02;;;10.60;78.10;;;;;;5001903;28;20101;-60
2023/12/13 00:23:22;;;;;;;2.75;1.20;;;10.60;78.10;;;;;;5003639;28;20599;-60
2023/12/13 00:25:49;;;;;;;0.95;0.90;;;10.60;78.10;;;;;;5004585;28;20021;-60
2023/12/13 00:28:14;;;;;;;1.65;1.20;;;10.50;78.00;;;;;;5005218;28;20049;-60
2023/12/13 00:30:40;;;;;;;1.30;1.20;;;10.50;78.10;;;;;;5006372;28;20026;-59
2023/12/13 00:33:05;;;;;;;1.15;0.80;;;10.50;78.10;;;;;;5002943;28;20045;-60
2023/12/13 00:35:31;;;;;;;1.10;0.90;;;10.50;78.10;;;;;;5003943;28;20026;-60
2023/12/13 00:37:57;;;;;;;0.70;0.70;;;10.50;78.10;;;;;;5004158;28;20037;-60
2023/12/13 00:40:24;;;;;;;1.52;0.90;;;10.50;78.10;;;;;;5004373;28;20026;-60
2023/12/13 00:42:50;;;;;;;4.00;0.77;;;10.50;78.10;;;;;;5004426;28;20046;-60
2023/12/13 00:45:20;;;;;;;1.38;0.80;;;10.40;78.00;;;;;;4969048;28;20090;-60
2023/12/13 00:47:45;;;;;;;1.52;0.80;;;10.40;78.00;;;;;;5000720;28;20034;-60
2023/12/13 00:50:11;;;;;;;0.90;0.60;;;10.40;78.00;;;;;;5003462;28;20061;-60
2023/12/13 00:52:36;;;;;;;1.10;0.80;;;10.30;77.90;;;;;;4985986;28;20053;-60
2023/12/13 00:55:04;;;;;;;0.80;0.80;;;10.30;78.00;;;;;;5003930;28;20038;-59
2023/12/13 00:57:30;;;;;;;0.88;0.80;;;10.30;78.10;;;;;;4999346;28;20025;-60
2023/12/13 00:59:56;;;;;;;1.30;0.88;;;10.20;78.10;;;;;;5002462;28;20061;-60
2023/12/13 01:02:22;;;;;;;0.70;0.70;;;10.20;78.80;;;;;;5002491;28;20125;-59
2023/12/13 01:04:47;;;;;;;0.70;0.70;;;10.20;78.20;;;;;;5002161;28;20623;-59
2023/12/13 01:07:13;;;;;;;1.38;0.88;;;10.10;78.10;;;;;;5002996;28;20374;-60
2023/12/13 01:09:40;;;;;;;1.20;0.90;;;10.10;78.10;;;;;;5004768;28;20033;-60
2023/12/13 01:12:06;;;;;;;1.35;0.82;;;10.00;78.00;;;;;;4999102;28;20130;-61
2023/12/13 01:14:33;;;;;;;0.73;0.70;;;10.00;78.10;;;;;;5002094;28;20049;-60
2023/12/13 01:16:59;;;;;;;1.25;0.85;;;10.00;78.20;;;;;;5002546;28;20216;-60
2023/12/13 01:19:24;;;;;;;0.82;0.82;;;9.90;78.20;;;;;;5002393;28;20109;-62
2023/12/13 01:21:50;;;;;;;0.75;0.75;;;9.90;78.20;;;;;;5002854;28;20030;-60
2023/12/13 01:24:16;;;;;;;0.60;0.60;;;9.90;78.10;;;;;;5003059;28;20571;-60
2023/12/13 01:26:43;;;;;;;1.15;0.75;;;9.80;78.10;;;;;;4998638;28;20034;-60
2023/12/13 01:29:09;;;;;;;0.60;0.60;;;9.80;78.20;;;;;;4999684;28;20034;-60
2023/12/13 01:31:35;;;;;;;0.88;0.85;;;9.80;78.20;;;;;;5001457;28;20157;-60
2023/12/13 01:34:02;;;;;;;0.88;0.88;;;9.70;78.00;;;;;;5002834;28;20591;-59
2023/12/13 01:36:28;;;;;;;0.70;0.70;;;9.60;78.00;;;;;;5003314;28;20045;-60
2023/12/13 01:38:54;;;;;;;5.05;0.90;;;9.60;77.80;;;;;;5002867;28;20033;-60
2023/12/13 01:41:20;;;;;;;0.90;0.90;;;9.50;77.80;;;;;;5004190;28;20523;-60
2023/12/13 01:43:45;;;;;;;1.20;0.80;;;9.50;77.90;;;;;;5002744;28;20030;-59
2023/12/13 01:46:12;;;;;;;1.10;0.80;;;9.40;77.80;;;;;;4937541;28;20029;-59
2023/12/13 01:48:39;;;;;;;1.10;1.00;;;9.40;77.80;;;;;;5002230;28;20018;-60
2023/12/13 01:51:06;;;;;;;0.90;0.90;;;9.30;77.80;;;;;;5002397;28;20041;-60
2023/12/13 01:53:34;;;;;;;1.13;0.95;;;9.30;77.80;;;;;;5000664;28;20030;-60
2023/12/13 01:56:00;;;;;;;0.95;0.80;;;9.20;77.80;;;;;;5002423;28;20404;-60
2023/12/13 01:58:27;;;;;;;1.38;0.77;;;9.20;77.80;;;;;;5000795;28;20590;-60
2023/12/13 02:00:54;;;;;;;1.27;0.90;;;9.10;77.90;;;;;;5002859;28;20029;-61
2023/12/13 02:03:21;;;;;;;1.52;0.85;;;9.00;78.00;;;;;;5000530;28;20026;-60
2023/12/13 02:05:50;;;;;;;1.00;0.88;;;9.00;78.00;;;;;;5002272;28;20021;-60
2023/12/13 02:08:16;;;;;;;1.50;1.02;;;8.90;77.90;;;;;;5001985;28;20044;-61
2023/12/13 02:10:42;;;;;;;2.85;0.95;;;8.80;77.90;;;;;;5001037;28;20026;-60
2023/12/13 02:13:07;;;;;;;1.98;0.90;;;8.80;78.00;;;;;;5002294;28;20432;-60
2023/12/13 02:15:35;;;;;;;1.20;0.85;;;8.80;77.90;;;;;;5001765;28;20041;-59
2023/12/13 02:18:01;;;;;;;0.80;0.80;;;8.70;77.80;;;;;;4998209;28;20108;-61
2023/12/13 02:20:27;;;;;;;1.00;0.90;;;8.70;77.90;;;;;;5001819;28;20057;-59
2023/12/13 02:22:53;;;;;;;1.85;0.80;;;8.60;78.00;;;;;;5003054;28;20061;-59
2023/12/13 02:25:46;;;;;;;0.90;0.90;;;8.60;78.10;;;;;;5001595;28;20132;-60
2023/12/13 02:28:13;;;;;;;1.45;1.35;;;8.50;77.80;;;;;;4999830;28;20527;-60
2023/12/13 02:30:41;;;;;;;1.35;1.25;;;8.50;77.80;;;;;;5001968;28;20030;-60
2023/12/13 02:33:08;;;;;;;1.30;1.20;;;8.40;77.70;;;;;;5000746;28;20030;-60
2023/12/13 02:35:34;;;;;;;2.53;1.30;;;8.40;77.60;;;;;;4983677;28;20108;-60
2023/12/13 02:38:00;;;;;;;1.40;1.30;;;8.30;77.50;;;;;;5002366;28;20029;-60
2023/12/13 02:40:25;;;;;;;1.23;1.20;;;8.30;77.50;;;;;;5001252;28;20060;-60
2023/12/13 02:42:51;;;;;;;1.25;1.20;;;8.20;77.40;;;;;;4983072;28;20030;-60
2023/12/13 02:45:28;;;;;;;0.95;0.95;;;8.20;77.50;;;;;;4999839;28;20022;-60
2023/12/13 02:47:56;;;;;;;0.90;0.90;;;8.20;77.50;;;;;;4995374;28;20022;-60
2023/12/13 02:50:22;;;;;;;1.77;0.90;;;8.10;77.50;;;;;;5001005;28;20030;-60
2023/12/13 02:52:47;;;;;;;1.50;0.95;;;8.00;77.60;;;;;;5001383;28;20053;-60
2023/12/13 02:55:13;;;;;;;1.52;0.98;;;8.00;77.70;;;;;;5001232;28;20408;-59
2023/12/13 02:57:39;;;;;;;1.42;1.10;;;8.00;77.60;;;;;;5000669;28;20053;-60
2023/12/13 03:00:06;;;;;;;1.35;1.13;;;7.90;77.50;;;;;;4999523;28;20528;-59
2023/12/13 03:02:32;;;;;;;2.15;1.20;;;7.90;77.50;;;;;;4998576;28;20022;-60
2023/12/13 03:04:59;;;;;;;1.73;1.30;;;7.80;77.40;;;;;;4999161;28;20084;-60
2023/12/13 03:07:25;;;;;;;1.13;1.00;;;7.80;77.40;;;;;;5001393;28;20025;-60
2023/12/13 03:09:51;;;;;;;1.00;1.00;;;7.70;77.40;;;;;;5001103;28;20493;-59
2023/12/13 03:12:16;;;;;;;1.10;1.00;;;7.70;77.40;;;;;;5000449;28;20109;-59
2023/12/13 03:14:42;;;;;;;2.95;0.90;;;7.60;77.50;;;;;;4983146;28;20069;-59
2023/12/13 03:17:08;;;;;;;1.30;0.90;;;7.60;77.50;;;;;;4999739;28;20025;-60
2023/12/13 03:19:33;;;;;;;1.42;0.95;;;7.50;77.60;;;;;;5000959;28;20034;-60
2023/12/13 03:21:59;;;;;;;3.22;0.85;;;7.50;77.80;;;;;;5001426;28;20042;-60
2023/12/13 03:24:24;;;;;;;1.05;0.90;;;7.40;78.00;;;;;;5003428;28;20547;-60
2023/12/13 03:26:50;;;;;;;1.00;0.90;;;7.40;78.20;;;;;;5000830;28;20049;-60
2023/12/13 03:29:17;;;;;;;1.00;0.90;;;7.40;78.30;;;;;;5001850;28;20392;-60
2023/12/13 03:31:43;;;;;;;2.65;1.10;;;7.40;78.40;;;;;;4983025;28;20372;-59
2023/12/13 03:34:09;;;;;;;2.97;0.93;;;7.30;78.40;;;;;;5000174;28;20080;-59
2023/12/13 03:36:34;;;;;;;1.45;1.00;;;7.30;78.60;;;;;;4999763;28;20042;-60
2023/12/13 03:39:00;;;;;;;1.83;1.10;;;7.30;78.50;;;;;;5000725;28;20034;-60
2023/12/13 03:41:26;;;;;;;2.08;1.00;;;7.30;78.20;;;;;;5000994;28;20417;-59
2023/12/13 03:43:51;;;;;;;2.78;1.27;;;7.20;78.00;;;;;;5001205;28;20028;-60
2023/12/13 03:46:17;;;;;;;21.50;1.95;;;7.20;77.90;;;;;;4920646;28;20052;-60
2023/12/13 03:48:43;;;;;;;23.10;1.35;;;7.20;77.60;;;;;;5000202;28;20026;-60
2023/12/13 03:51:08;;;;;;;11.90;1.38;;;7.10;77.50;;;;;;5000848;28;20144;-59
2023/12/13 03:53:37;;;;;;;1.17;1.10;;;7.10;77.50;;;;;;5004558;28;20026;-60
2023/12/13 03:56:03;;;;;;;1.00;1.00;;;7.00;77.50;;;;;;5004850;28;20046;-60
2023/12/13 03:58:29;;;;;;;1.02;1.02;;;7.00;77.60;;;;;;5004739;28;20590;-60
2023/12/13 04:00:55;;;;;;;1.15;1.05;;;6.90;77.60;;;;;;5003939;28;20404;-61
2023/12/13 04:03:21;;;;;;;1.27;1.13;;;6.90;77.60;;;;;;5003091;28;20025;-60
2023/12/13 04:05:47;;;;;;;1.30;1.20;;;6.90;77.60;;;;;;5001951;28;20397;-61
2023/12/13 04:08:12;;;;;;;1.05;1.05;;;6.90;77.60;;;;;;5003552;28;20030;-60
2023/12/13 04:10:38;;;;;;;1.00;1.00;;;6.80;77.60;;;;;;5001993;28;20100;-60
2023/12/13 04:13:04;;;;;;;2.15;1.08;;;6.80;77.60;;;;;;5003495;28;20560;-60
2023/12/13 04:15:29;;;;;;;1.63;1.20;;;6.70;77.80;;;;;;5004635;28;20466;-59
2023/12/13 04:17:55;;;;;;;1.67;1.42;;;6.70;77.80;;;;;;5001402;28;20030;-59
2023/12/13 04:20:21;;;;;;;1.33;1.20;;;6.70;77.70;;;;;;5003942;28;20389;-60
2023/12/13 04:22:47;;;;;;;2.03;1.25;;;6.70;77.60;;;;;;5005555;28;20029;-60
2023/12/13 04:25:13;;;;;;;1.23;1.00;;;6.60;77.60;;;;;;5000709;28;20396;-59
2023/12/13 04:27:39;;;;;;;2.28;1.10;;;6.60;77.50;;;;;;5003930;28;20029;-60
2023/12/13 04:30:05;;;;;;;2.67;1.27;;;6.60;77.50;;;;;;5003659;28;20622;-61
2023/12/13 04:32:31;;;;;;;1.67;1.33;;;6.50;77.40;;;;;;5002628;28;20380;-60
2023/12/13 04:34:57;;;;;;;1.17;1.15;;;6.50;77.50;;;;;;5003449;28;20042;-61
2023/12/13 04:37:23;;;;;;;1.38;1.27;;;6.50;77.60;;;;;;5004832;28;20030;-60
2023/12/13 04:39:49;;;;;;;1.58;1.48;;;6.40;77.50;;;;;;5004410;28;20029;-59
2023/12/13 04:42:15;;;;;;;1.60;1.50;;;6.40;77.60;;;;;;5003320;28;20046;-60
2023/12/13 04:44:40;;;;;;;1.88;1.55;;;6.40;77.60;;;;;;5006923;28;20022;-61
2023/12/13 04:47:06;;;;;;;2.58;1.40;;;6.30;77.60;;;;;;4913616;28;20033;-60
2023/12/13 04:49:32;;;;;;;3.45;1.67;;;6.30;77.60;;;;;;4997293;28;20468;-61
2023/12/13 04:51:57;;;;;;;3.13;1.60;;;6.30;77.70;;;;;;5000748;28;20121;-60
2023/12/13 04:54:23;;;;;;;1.98;1.40;;;6.30;77.80;;;;;;5005317;28;20029;-60
2023/12/13 04:56:48;;;;;;;1.70;1.58;;;6.30;77.90;;;;;;5003104;28;20552;-60
2023/12/13 04:59:14;;;;;;;2.38;1.80;;;6.30;77.90;;;;;;5003708;28;20068;-59
2023/12/13 05:01:40;;;;;;;2.10;1.80;;;6.30;78.00;;;;;;4998797;28;20489;-61
2023/12/13 05:04:05;;;;;;;2.60;1.63;;;6.20;78.00;;;;;;4990907;28;20026;-60
2023/12/13 05:06:31;;;;;;;2.25;1.80;;;6.20;78.10;;;;;;5004463;28;20088;-60
2023/12/13 05:08:57;;;;;;;2.75;2.20;;;6.20;78.20;;;;;;5003695;28;20026;-59
2023/12/13 05:11:22;;;;;;;2.40;1.98;;;6.20;78.30;;;;;;5002640;28;20108;-61
2023/12/13 05:13:48;;;;;;;2.33;1.90;;;6.20;78.50;;;;;;4999311;28;20028;-61
2023/12/13 05:16:14;;;;;;;3.70;2.10;;;6.20;78.50;;;;;;5002545;28;20128;-60
2023/12/13 05:18:40;;;;;;;7.97;3.85;;;6.20;78.50;;;;;;5002154;28;20026;-60
2023/12/13 05:21:05;;;;;;;5.32;3.10;;;6.20;78.60;;;;;;5002138;28;20080;-59
2023/12/13 05:23:31;;;;;;;7.32;2.50;;;6.20;78.60;;;;;;5003207;28;20092;-59
2023/12/13 05:25:57;;;;;;;3.33;2.03;;;6.20;78.60;;;;;;5001823;28;20068;-60
2023/12/13 05:28:22;;;;;;;3.72;2.00;;;6.20;78.60;;;;;;5002054;28;20104;-59
2023/12/13 05:30:48;;;;;;;3.75;2.30;;;6.20;78.70;;;;;;5002359;28;20058;-60
2023/12/13 05:33:14;;;;;;;3.83;2.28;;;6.20;78.70;;;;;;4985818;28;20025;-60
2023/12/13 05:35:39;;;;;;;6.15;2.70;;;6.30;78.70;;;;;;5001076;28;20385;-60
2023/12/13 05:38:05;;;;;;;4.88;2.25;;;6.30;78.80;;;;;;5000322;28;20026;-60
2023/12/13 05:40:34;;;;;;;6.75;2.58;;;6.30;78.80;;;;;;5002007;28;20072;-61
2023/12/13 05:43:01;;;;;;;4.95;2.35;;;6.30;78.80;;;;;;5000409;28;20101;-61
2023/12/13 05:45:31;;;;;;;3.20;2.08;;;6.30;78.70;;;;;;4981912;28;20061;-61
2023/12/13 05:47:56;;;;;;;3.00;2.17;;;6.30;78.70;;;;;;5000122;28;20026;-61
2023/12/13 05:50:22;;;;;;;3.58;2.05;;;6.30;78.60;;;;;;5004958;28;20060;-61
2023/12/13 05:52:48;;;;;;;4.10;2.92;;;6.20;78.60;;;;;;5002503;28;20099;-60
2023/12/13 05:55:13;;;;;;;6.75;2.42;;;6.20;78.70;;;;;;5003422;28;20124;-59
2023/12/13 05:57:39;;;;;;;6.13;2.83;;;6.20;78.60;;;;;;5002096;28;20037;-61
2023/12/13 06:00:06;;;;;;;2.00;1.80;;;6.20;78.50;;;;;;4984112;28;20060;-59
2023/12/13 06:02:35;;;;;;;2.80;2.00;;;6.20;78.40;;;;;;5001435;28;20030;-60
2023/12/13 06:05:03;;;;;;;2.90;2.00;;;6.20;78.40;;;;;;5001302;28;20088;-60
2023/12/13 06:07:29;;;;;;;4.93;1.92;;;6.20;78.50;;;;;;5001482;28;20104;-59
2023/12/13 06:09:55;;;;;;;2.67;1.60;;;6.20;78.50;;;;;;5001970;28;20088;-59
2023/12/13 06:12:20;;;;;;;3.28;1.90;;;6.20;78.50;;;;;;4999851;28;20034;-61
2023/12/13 06:14:46;;;;;;;2.88;1.73;;;6.20;78.50;;;;;;5002002;28;20038;-60
2023/12/13 06:17:12;;;;;;;3.90;1.95;;;6.20;78.60;;;;;;5001620;28;20109;-62
2023/12/13 06:19:37;;;;;;;5.15;1.90;;;6.20;78.60;;;;;;5002254;28;20128;-60
2023/12/13 06:22:03;;;;;;;2.30;2.00;;;6.10;78.60;;;;;;4984616;28;20117;-62
2023/12/13 06:24:29;;;;;;;2.58;2.20;;;6.10;78.60;;;;;;5000683;28;20038;-61
2023/12/13 06:26:55;;;;;;;4.25;2.50;;;6.10;78.60;;;;;;4983872;28;20076;-61
2023/12/13 06:29:20;;;;;;;3.70;2.08;;;6.10;78.60;;;;;;5000535;28;20650;-59
2023/12/13 06:31:46;;;;;;;7.00;2.45;;;6.10;78.60;;;;;;5002076;28;20100;-62
2023/12/13 06:34:11;;;;;;;4.18;2.20;;;6.20;78.70;;;;;;5001221;28;20566;-59
2023/12/13 06:36:38;;;;;;;3.28;2.50;;;6.10;78.60;;;;;;5001529;28;20042;-60
2023/12/13 06:39:04;;;;;;;5.90;2.75;;;6.10;78.70;;;;;;5002653;28;20144;-60
2023/12/13 06:41:32;;;;;;;3.30;2.47;;;6.10;78.80;;;;;;4999409;28;20157;-61
2023/12/13 06:43:58;;;;;;;5.03;3.35;;;6.20;78.90;;;;;;5003847;28;20033;-60
2023/12/13 06:46:24;;;;;;;4.07;3.00;;;6.20;78.90;;;;;;4916895;28;20433;-59
2023/12/13 06:48:51;;;;;;;5.05;2.70;;;6.10;78.90;;;;;;5000945;28;20037;-60
2023/12/13 06:51:17;;;;;;;5.95;3.25;;;6.20;79.00;;;;;;4980271;28;20595;-60
2023/12/13 06:53:44;;;;;;;6.93;3.38;;;6.20;79.10;;;;;;5001526;28;20022;-60
2023/12/13 06:56:10;;;;;;;6.88;4.25;;;6.20;79.20;;;;;;5001294;28;20045;-60
2023/12/13 06:58:35;;;;;;;6.35;4.30;;;6.20;79.20;;;;;;5001857;28;20037;-60
2023/12/13 07:01:01;;;;;;;11.13;5.45;;;6.20;79.20;;;;;;5000585;28;20500;-61
2023/12/13 07:03:27;;;;;;;10.68;5.32;;;6.20;79.20;;;;;;5002553;28;20434;-60
2023/12/13 07:05:53;;;;;;;9.70;5.97;;;6.30;79.30;;;;;;5002071;28;20132;-60
2023/12/13 07:08:19;;;;;;;8.95;5.43;;;6.30;79.20;;;;;;5001839;28;20164;-59
2023/12/13 07:10:45;;;;;;;7.50;5.00;;;6.30;79.30;;;;;;5000638;28;20514;-60
2023/12/13 07:13:10;;;;;;;8.23;5.05;;;6.30;79.50;;;;;;5000785;28;20037;-59
2023/12/13 07:15:37;;;;;;;5.50;4.15;;;6.30;79.60;;;;;;5001726;28;20045;-60
2023/12/13 07:18:02;;;;;;;6.60;4.30;;;6.30;79.80;;;;;;5000129;28;20045;-60
2023/12/13 07:20:30;;;;;;;6.43;3.97;;;6.40;79.90;;;;;;5001280;28;20034;-60
2023/12/13 07:22:56;;;;;;;5.55;4.43;;;6.40;79.90;;;;;;4998580;28;20038;-62
2023/12/13 07:25:22;;;;;;;8.05;4.40;;;6.40;79.90;;;;;;5003047;28;20135;-61
2023/12/13 07:27:48;;;;;;;8.32;4.55;;;6.50;80.10;;;;;;5005404;28;20408;-62
2023/12/13 07:30:13;;;;;;;9.40;5.20;;;6.50;80.00;;;;;;5004806;28;20117;-61
2023/12/13 07:32:41;;;;;;;7.78;4.60;;;6.50;80.00;;;;;;5004556;28;20117;-62
2023/12/13 07:35:08;;;;;;;7.50;5.15;;;6.60;80.00;;;;;;5003916;28;20034;-62
2023/12/13 07:37:35;;;;;;;7.45;5.10;;;6.60;80.00;;;;;;5004820;28;20018;-62
2023/12/13 07:40:02;;;;;;;8.80;5.43;;;6.60;79.90;;;;;;5005229;28;20408;-63
2023/12/13 07:42:27;;;;;;;7.97;5.78;;;6.70;80.00;;;;;;5004745;28;20566;-62
2023/12/13 07:44:55;;;;;;;8.13;5.85;;;6.70;80.00;;;;;;5004317;28;20030;-61
2023/12/13 07:47:21;;;;;;;12.48;5.53;;;6.70;80.00;;;;;;4939932;28;20033;-63
2023/12/13 07:49:47;;;;;;;7.28;4.20;;;6.80;80.00;;;;;;5002912;28;20025;-62
2023/12/13 07:52:12;;;;;;;6.72;3.65;;;6.80;80.00;;;;;;5004804;28;20034;-63
2023/12/13 07:54:38;;;;;;;5.18;3.35;;;6.80;79.90;;;;;;5008647;28;20025;-62
2023/12/13 07:57:04;;;;;;;7.47;3.75;;;6.80;79.80;;;;;;5003837;28;20396;-62
2023/12/13 07:59:29;;;;;;;5.25;3.25;;;6.90;79.70;;;;;;5000709;28;20037;-63
2023/12/13 08:01:55;;;;;;;6.50;4.10;;;6.90;79.60;;;;;;5004063;28;20448;-63
2023/12/13 08:04:21;;;;;;;7.40;4.63;;;6.90;79.70;;;;;;5004854;28;20036;-62
2023/12/13 08:06:46;;;;;;;7.00;4.15;;;7.00;79.80;;;;;;5003818;28;20032;-61
2023/12/13 08:09:12;;;;;;;6.05;3.10;;;7.00;79.90;;;;;;5004653;28;20091;-62
2023/12/13 08:11:38;;;;;;;5.35;3.03;;;7.00;80.00;;;;;;5004974;28;20072;-62
2023/12/13 08:14:04;;;;;;;4.82;3.03;;;7.10;80.00;;;;;;5004772;28;20460;-61
2023/12/13 08:16:30;;;;;;;6.45;3.28;;;7.10;80.00;;;;;;5002626;28;20046;-61
2023/12/13 08:18:56;;;;;;;8.35;3.00;;;7.20;80.20;;;;;;5004313;28;20030;-62
2023/12/13 08:21:23;;;;;;;5.50;3.17;;;7.20;80.30;;;;;;4986365;28;20392;-62
2023/12/13 08:23:50;;;;;;;5.22;2.70;;;7.30;80.40;;;;;;5004547;28;20026;-62
2023/12/13 08:26:16;;;;;;;7.10;2.80;;;7.30;80.50;;;;;;5001444;28;20384;-62
2023/12/13 08:28:42;;;;;;;9.18;3.58;;;7.40;80.60;;;;;;5005985;28;20022;-61
2023/12/13 08:31:09;;;;;;;6.10;3.15;;;7.50;80.70;;;;;;5004100;28;20174;-61
2023/12/13 08:33:34;;;;;;;4.93;2.97;;;7.60;80.60;;;;;;5003929;28;20022;-62
2023/12/13 08:36:00;;;;;;;6.10;2.50;;;7.60;80.50;;;;;;5003011;28;20048;-63
2023/12/13 08:38:26;;;;;;;4.05;2.40;;;7.70;80.80;;;;;;5002586;28;20049;-61
2023/12/13 08:40:52;;;;;;;3.97;2.53;;;7.80;80.40;;;;;;5000639;28;20135;-61
2023/12/13 08:43:18;;;;;;;5.38;2.65;;;7.90;80.40;;;;;;4986322;28;20034;-62
2023/12/13 08:45:43;;;;;;;7.22;2.25;;;8.00;80.20;;;;;;4930893;28;20065;-61
2023/12/13 08:48:09;;;;;;;5.25;2.60;;;8.00;80.00;;;;;;5004025;28;20188;-61
2023/12/13 08:50:35;;;;;;;6.60;2.95;;;8.10;79.80;;;;;;5004044;28;20038;-62
2023/12/13 08:53:01;;;;;;;5.30;3.80;;;8.10;79.70;;;;;;4998791;28;20065;-62
2023/12/13 08:55:29;;;;;;;9.32;3.80;;;8.20;79.70;;;;;;5000930;28;20108;-63
2023/12/13 08:57:54;;;;;;;7.45;4.35;;;8.20;79.60;;;;;;5001140;28;20056;-62
2023/12/13 09:00:20;;;;;;;7.60;4.60;;;8.20;79.50;;;;;;5003670;28;20484;-63
2023/12/13 09:02:47;;;;;;;9.23;6.32;;;8.30;79.50;;;;;;5002512;28;20530;-62
2023/12/13 09:05:13;;;;;;;13.00;8.13;;;8.30;79.60;;;;;;5003639;28;20064;-61
2023/12/13 09:07:39;;;;;;;18.02;9.10;;;8.30;80.20;;;;;;5003394;28;20037;-63
2023/12/13 09:10:08;;;;;;;14.88;9.13;;;8.40;79.60;;;;;;4984804;28;20402;-63
2023/12/13 09:12:33;;;;;;;22.73;13.90;;;8.40;79.60;;;;;;5003557;28;20080;-63
2023/12/13 09:14:59;;;;;;;25.80;13.57;;;8.50;79.70;;;;;;5003096;28;20571;-63
2023/12/13 09:17:25;;;;;;;21.55;13.60;;;8.50;79.70;;;;;;5001770;28;20443;-63
2023/12/13 09:19:51;;;;;;;24.92;14.18;;;8.60;79.60;;;;;;4982398;28;20068;-63
2023/12/13 09:22:17;;;;;;;23.80;14.30;;;8.60;79.70;;;;;;5002073;28;20025;-63
2023/12/13 09:24:43;;;;;;;23.02;14.35;;;8.60;79.80;;;;;;5002245;28;20037;-63
2023/12/13 09:27:09;;;;;;;22.15;14.75;;;8.70;79.90;;;;;;4984907;28;20501;-63
2023/12/13 09:29:35;;;;;;;26.88;14.82;;;8.70;79.80;;;;;;4998503;28;20424;-62
2023/12/13 09:32:01;;;;;;;24.25;14.65;;;8.80;79.80;;;;;;5002035;28;20148;-62
2023/12/13 09:34:27;;;;;;;25.88;14.48;;;8.90;79.80;;;;;;5003716;28;20140;-62
2023/12/13 09:36:53;;;;;;;30.25;15.95;;;8.90;79.70;;;;;;5004415;28;20045;-63
2023/12/13 09:39:20;;;;;;;28.75;17.60;;;8.90;80.40;;;;;;5002901;28;20033;-64
2023/12/13 09:41:52;;;;;;;38.67;23.15;;;9.00;79.60;;;;;;5004771;28;20493;-62
2023/12/13 09:44:23;;;;;;;33.15;20.40;;;9.00;79.60;;;;;;5005875;28;20033;-62
2023/12/13 09:46:52;;;;;;;36.08;21.27;;;9.00;79.40;;;;;;4938901;28;20481;-62
2023/12/13 09:49:17;;;;;;;36.03;20.60;;;9.00;79.40;;;;;;4984810;28;20080;-62
2023/12/13 09:51:46;;;;;;;31.40;19.10;;;9.00;79.40;;;;;;5003555;28;20018;-62
2023/12/13 09:54:12;;;;;;;27.55;17.27;;;9.10;79.60;;;;;;4989297;28;20392;-62
2023/12/13 09:56:38;;;;;;;27.98;17.38;;;9.10;79.70;;;;;;4998840;28;20046;-62
2023/12/13 09:59:04;;;;;;;29.85;17.85;;;9.10;79.70;;;;;;5007423;28;20033;-61
2023/12/13 10:01:31;;;;;;;27.70;15.88;;;9.20;79.80;;;;;;5000897;28;20037;-63
2023/12/13 10:03:57;;;;;;;31.33;18.05;;;9.20;79.60;;;;;;4988039;28;20365;-61
2023/12/13 10:06:23;;;;;;;31.08;18.90;;;9.20;79.60;;;;;;5007150;28;20026;-61
2023/12/13 10:08:54;;;;;;;23.00;13.48;;;9.20;79.50;;;;;;4988091;28;20177;-61
2023/12/13 10:11:20;;;;;;;16.85;11.75;;;9.30;79.60;;;;;;5007695;28;20052;-61
2023/12/13 10:13:49;;;;;;;14.18;9.68;;;9.30;79.50;;;;;;5011489;28;20460;-61
2023/12/13 10:16:15;;;;;;;16.23;9.35;;;9.30;79.50;;;;;;5006093;28;20381;-63
2023/12/13 10:18:41;;;;;;;12.75;7.65;;;9.30;79.50;;;;;;5002300;28;20042;-61
2023/12/13 10:21:10;;;;;;;12.30;7.57;;;9.40;79.40;;;;;;5008146;28;20056;-61
2023/12/13 10:23:36;;;;;;;11.88;7.28;;;9.40;79.40;;;;;;5010751;28;20540;-62
2023/12/13 10:26:03;;;;;;;11.82;7.78;;;9.40;79.40;;;;;;5006905;28;20117;-62
2023/12/13 10:28:29;;;;;;;14.88;7.75;;;9.40;79.40;;;;;;4985478;28;20021;-61
2023/12/13 10:30:58;;;;;;;10.57;7.22;;;9.50;79.50;;;;;;5007169;28;20037;-61
2023/12/13 10:33:23;;;;;;;9.98;6.95;;;9.50;79.50;;;;;;5005346;28;20109;-61
2023/12/13 10:35:53;;;;;;;15.73;7.97;;;9.50;79.50;;;;;;5002837;28;20524;-61
2023/12/13 10:38:24;;;;;;;10.82;7.30;;;9.50;79.50;;;;;;5003419;28;20021;-63
2023/12/13 10:40:50;;;;;;;12.32;7.07;;;9.50;79.50;;;;;;5006435;28;20037;-61
2023/12/13 10:43:16;;;;;;;13.73;6.97;;;9.60;79.60;;;;;;5006637;28;20361;-61
2023/12/13 10:45:55;;;;;;;11.45;6.63;;;9.60;79.50;;;;;;4933666;28;20029;-62
2023/12/13 10:48:23;;;;;;;10.05;6.32;;;9.60;79.50;;;;;;5002822;28;20072;-62
2023/12/13 10:50:50;;;;;;;9.77;6.30;;;9.70;79.40;;;;;;5007305;28;20037;-61
2023/12/13 10:53:18;;;;;;;10.27;6.70;;;9.70;79.40;;;;;;5007034;28;20040;-61
2023/12/13 10:55:44;;;;;;;8.70;6.05;;;9.70;79.50;;;;;;5006165;28;20469;-61
2023/12/13 10:58:11;;;;;;;8.98;6.20;;;9.70;79.50;;;;;;5006212;28;20041;-61
2023/12/13 11:00:38;;;;;;;9.68;6.65;;;9.80;79.60;;;;;;5004858;28;20480;-61
2023/12/13 11:03:15;;;;;;;10.68;5.88;;;9.80;79.60;;;;;;5006474;28;20034;-61
2023/12/13 11:05:41;;;;;;;10.20;6.05;;;9.80;79.80;;;;;;5003465;28;20025;-61
2023/12/13 11:08:14;;;;;;;12.68;6.07;;;9.90;79.80;;;;;;5004189;28;20097;-62
2023/12/13 11:10:40;;;;;;;9.25;4.28;;;9.90;80.10;;;;;;4997853;28;20061;-61
2023/12/13 11:13:06;;;;;;;10.00;5.45;;;9.90;80.00;;;;;;5000537;28;20064;-62
2023/12/13 11:15:41;;;;;;;9.45;5.18;;;10.00;80.20;;;;;;5004069;28;20038;-61
2023/12/13 11:18:09;;;;;;;8.88;4.75;;;10.00;80.20;;;;;;5006132;28;20048;-61
2023/12/13 11:20:48;;;;;;;9.18;5.22;;;10.10;80.20;;;;;;5003279;28;20108;-62
2023/12/13 11:23:14;;;;;;;13.25;5.82;;;10.10;80.10;;;;;;5004077;28;20157;-61
2023/12/13 11:25:43;;;;;;;10.20;5.63;;;10.20;79.90;;;;;;5003383;28;20257;-61
2023/12/13 11:28:22;;;;;;;12.52;6.05;;;10.20;79.90;;;;;;4991541;28;20030;-61
2023/12/13 11:30:48;;;;;;;12.25;6.53;;;10.20;79.80;;;;;;5005499;28;20040;-61
2023/12/13 11:33:15;;;;;;;10.30;7.20;;;10.30;79.80;;;;;;5005755;28;20121;-61
2023/12/13 11:35:41;;;;;;;11.65;7.38;;;10.30;80.00;;;;;;4988162;28;20084;-62
2023/12/13 11:38:07;;;;;;;11.32;7.40;;;10.30;80.00;;;;;;4987925;28;20125;-61
2023/12/13 11:40:33;;;;;;;14.32;7.47;;;10.30;80.10;;;;;;5005684;28;20105;-61
2023/12/13 11:42:59;;;;;;;10.50;6.88;;;10.30;80.10;;;;;;5005283;28;20117;-61
2023/12/13 11:45:48;;;;;;;16.17;7.18;;;10.40;80.20;;;;;;4970592;28;20384;-61
2023/12/13 11:48:17;;;;;;;12.50;8.18;;;10.40;80.40;;;;;;5003686;28;20038;-62
2023/12/13 11:50:43;;;;;;;16.48;8.73;;;10.50;80.20;;;;;;4988109;28;20034;-62
2023/12/13 11:53:10;;;;;;;19.88;10.80;;;10.50;80.20;;;;;;5006078;28;20387;-62
2023/12/13 11:55:36;;;;;;;17.70;10.95;;;10.60;80.10;;;;;;5003589;28;20112;-62
2023/12/13 11:58:05;;;;;;;20.88;11.60;;;10.60;80.00;;;;;;5005779;28;20229;-62
2023/12/13 12:00:34;;;;;;;20.02;12.32;;;10.70;80.30;;;;;;5002438;28;20037;-62
2023/12/13 12:03:00;;;;;;;16.13;10.15;;;10.70;80.50;;;;;;5007321;28;20029;-62
2023/12/13 12:05:27;;;;;;;17.60;10.13;;;10.80;80.70;;;;;;5000942;28;20157;-62
2023/12/13 12:07:58;;;;;;;14.68;9.02;;;10.90;80.70;;;;;;4991937;28;20030;-61
2023/12/13 12:10:25;;;;;;;14.40;8.63;;;11.00;80.50;;;;;;5004075;28;20810;-62
2023/12/13 12:12:51;;;;;;;12.65;8.93;;;11.10;80.20;;;;;;5009106;28;20087;-62
2023/12/13 12:15:19;;;;;;;16.20;8.15;;;11.20;79.90;;;;;;5002174;28;20112;-62
2023/12/13 12:17:45;;;;;;;12.85;7.80;;;11.30;79.80;;;;;;5007961;28;20014;-63
2023/12/13 12:20:13;;;;;;;19.95;11.13;;;11.30;79.70;;;;;;5007922;28;20034;-61
2023/12/13 12:22:38;;;;;;;18.85;12.00;;;11.40;79.80;;;;;;5008007;28;20472;-61
2023/12/13 12:25:08;;;;;;;18.08;11.73;;;11.40;79.80;;;;;;5007835;28;20038;-61
2023/12/13 12:27:35;;;;;;;20.23;12.38;;;11.50;79.70;;;;;;5006998;28;20034;-62
2023/12/13 12:30:03;;;;;;;16.42;11.38;;;11.60;79.50;;;;;;5007250;28;20024;-61
2023/12/13 12:32:29;;;;;;;13.70;8.63;;;11.60;79.50;;;;;;5008090;28;20026;-62
2023/12/13 12:34:54;;;;;;;13.52;8.55;;;11.70;79.40;;;;;;5007190;28;20100;-62
2023/12/13 12:37:20;;;;;;;12.30;7.50;;;11.80;79.30;;;;;;5004995;28;20037;-62
2023/12/13 12:39:46;;;;;;;10.27;6.68;;;11.80;79.10;;;;;;5005085;28;20022;-62
2023/12/13 12:42:13;;;;;;;8.45;5.60;;;11.80;78.90;;;;;;4989373;28;20042;-61
2023/12/13 12:44:39;;;;;;;7.50;4.80;;;11.90;78.60;;;;;;5007228;28;20030;-62
2023/12/13 12:47:05;;;;;;;7.75;4.05;;;11.90;78.40;;;;;;5005371;28;20436;-62